createdAt,value
2019-04-23T18:28:08.468Z,1001.04
2019-04-23T18:29:27.816Z,1001.03
2019-04-23T18:31:13.037Z,1001.05
2019-04-23T18:32:22.199Z,1001.02
2019-04-23T18:34:16.355Z,1001.06
2019-04-23T18:35:19.547Z,1001.08
2019-04-23T18:36:13.180Z,1001.06
2019-04-23T18:37:29.996Z,1001.11
2019-04-23T18:38:18.324Z,1001.04
2019-04-23T18:39:19.817Z,1001.08
2019-04-23T18:40:13.655Z,1001.05
2019-04-23T18:41:27.265Z,1001.09
2019-04-23T18:42:25.768Z,1001.14
2019-04-23T18:44:24.835Z,1001.11
2019-04-23T18:45:29.569Z,1001.05
2019-04-23T18:47:25.220Z,1001.17
2019-04-23T18:48:33.670Z,1001.19
2019-04-23T18:49:19.870Z,1001.15
2019-04-23T18:50:22.624Z,1001.08
2019-04-23T18:51:33.639Z,1001.13
2019-04-23T18:52:26.122Z,1001.15
2019-04-23T18:53:22.751Z,1001.13
2019-04-23T18:54:14.939Z,1001.18
2019-04-23T18:55:26.487Z,1001.17
2019-04-23T18:57:13.013Z,1001.16
2019-04-23T18:58:14.307Z,1001.20
2019-04-23T18:59:24.897Z,1001.18
2019-04-23T19:00:24.049Z,1001.20
2019-04-23T19:02:24.087Z,1001.20
2019-04-23T19:03:23.135Z,1001.17
2019-04-23T19:04:19.569Z,1001.19
2019-04-23T19:05:24.761Z,1001.32
2019-04-23T19:06:25.706Z,1001.34
2019-04-23T19:07:38.946Z,1001.16
2019-04-23T19:08:31.913Z,1001.33
2019-04-23T19:09:32.530Z,1001.22
2019-04-23T19:10:31.853Z,1001.22
2019-04-23T19:11:24.073Z,1001.32
2019-04-23T19:12:26.856Z,1001.27
2019-04-23T19:13:18.878Z,1001.38
2019-04-23T19:14:25.732Z,1001.22
2019-04-23T19:15:23.576Z,1001.28
2019-04-23T19:16:15.960Z,1001.34
2019-04-23T19:18:19.158Z,1001.31
2019-04-23T19:19:20.165Z,1001.31
2019-04-23T19:20:31.202Z,1001.34
2019-04-23T19:24:15.849Z,1001.38
2019-04-23T19:26:32.305Z,1001.37
2019-04-23T19:27:28.590Z,1001.31
2019-04-23T19:29:21.350Z,1001.36
2019-04-23T19:30:28.436Z,1001.36
2019-04-23T19:31:31.365Z,1001.34
2019-04-23T19:32:06.638Z,1001.36
2019-04-23T19:33:25.113Z,1001.36
2019-04-23T19:34:36.494Z,1001.33
2019-04-23T19:35:37.304Z,1001.37
2019-04-23T19:36:17.213Z,1001.33
2019-04-23T19:37:18.234Z,1001.38
2019-04-23T19:38:23.931Z,1001.39
2019-04-23T19:39:26.348Z,1001.44
2019-04-23T19:40:19.658Z,1001.37
2019-04-23T19:41:23.890Z,1001.33
2019-04-23T19:43:19.311Z,1001.46
2019-04-23T19:44:15.984Z,1001.35
2019-04-23T19:45:20.574Z,1001.37
2019-04-23T19:47:17.133Z,1001.46
2019-04-23T19:48:28.045Z,1001.37
2019-04-23T19:49:19.258Z,1001.44
2019-04-23T19:50:23.963Z,1001.39
2019-04-23T19:51:21.325Z,1001.42
2019-04-23T19:52:18.966Z,1001.41
2019-04-23T19:53:36.307Z,1001.47
2019-04-23T19:54:28.354Z,1001.41
2019-04-23T19:55:21.414Z,1001.39
2019-04-23T19:56:16.176Z,1001.31
2019-04-23T19:57:23.405Z,1001.39
2019-04-23T19:58:27.431Z,1001.44
2019-04-23T19:59:15.522Z,1001.43
2019-04-23T20:00:19.467Z,1001.38
2019-04-23T20:01:23.896Z,1001.37
2019-04-23T20:02:32.473Z,1001.33
2019-04-23T20:03:32.525Z,1001.44
2019-04-23T20:04:16.035Z,1001.37
2019-04-23T20:05:13.783Z,1001.39
2019-04-23T20:06:19.055Z,1001.42
2019-04-23T20:07:20.014Z,1001.34
2019-04-23T20:08:23.142Z,1001.37
2019-04-23T20:10:16.818Z,1001.53
2019-04-23T20:11:13.534Z,1001.35
2019-04-23T20:12:14.145Z,1001.38
2019-04-23T20:13:19.152Z,1001.38
2019-04-23T20:14:18.419Z,1001.34
2019-04-23T20:15:07.198Z,1001.42
2019-04-23T20:16:25.815Z,1001.41
2019-04-23T20:17:31.727Z,1001.41
2019-04-23T20:18:26.250Z,1001.42
2019-04-23T20:19:18.905Z,1001.40
2019-04-23T20:20:23.284Z,1001.45
2019-04-23T20:21:12.845Z,1001.40
2019-04-23T20:22:26.048Z,1001.39
2019-04-23T20:23:26.490Z,1001.36
2019-04-23T20:26:23.502Z,1001.35
2019-04-23T20:27:18.523Z,1001.35
2019-04-23T20:29:45.713Z,1001.32
2019-04-23T20:30:32.295Z,1001.32
2019-04-23T20:32:12.726Z,1001.40
2019-04-23T20:32:27.796Z,1001.41
2019-04-23T20:32:54.762Z,1001.33
2019-04-23T20:35:10.950Z,1001.41
2019-04-23T20:36:25.823Z,1001.39
2019-04-23T20:37:17.794Z,1001.42
2019-04-23T20:40:25.667Z,1001.43
2019-04-23T20:41:27.425Z,1001.45
2019-04-23T20:42:16.542Z,1001.35
2019-04-23T20:43:14.548Z,1001.29
2019-04-23T20:44:23.582Z,1001.41
2019-04-23T20:45:17.012Z,1001.32
2019-04-23T20:46:14.907Z,1001.40
2019-04-23T20:48:12.648Z,1001.38
2019-04-23T20:49:23.353Z,1001.44
2019-04-23T20:50:10.456Z,1001.39
2019-04-23T20:51:16.355Z,1001.37
2019-04-23T20:52:10.135Z,1001.42
2019-04-23T20:53:19.551Z,1001.47
2019-04-23T20:54:21.489Z,1001.40
2019-04-23T20:55:21.881Z,1001.47
2019-04-23T20:56:18.267Z,1001.44
2019-04-23T20:57:24.643Z,1001.41
2019-04-23T20:58:16.166Z,1001.39
2019-04-23T20:59:16.160Z,1001.34
2019-04-23T21:00:25.879Z,1001.45
2019-04-23T21:02:34.355Z,1001.42
2019-04-23T21:03:28.760Z,1001.38
2019-04-23T21:04:13.782Z,1001.45
2019-04-23T21:05:16.043Z,1001.40
2019-04-23T21:06:21.579Z,1001.43
2019-04-23T21:07:21.176Z,1001.34
2019-04-23T21:08:22.413Z,1001.38
2019-04-23T21:11:12.683Z,1001.50
2019-04-23T21:12:27.755Z,1001.43
2019-04-23T21:13:27.168Z,1001.42
2019-04-23T21:14:33.504Z,1001.43
2019-04-23T21:16:48.401Z,1001.44
2019-04-23T21:17:15.387Z,1001.44
2019-04-23T21:19:25.915Z,1001.44
2019-04-23T21:21:17.964Z,1001.34
2019-04-23T21:22:21.508Z,1001.39
2019-04-23T21:24:16.917Z,1001.46
2019-04-23T21:25:14.724Z,1001.41
2019-04-23T21:26:07.863Z,1001.40
2019-04-23T21:27:20.454Z,1001.43
2019-04-23T21:29:13.541Z,1001.47
2019-04-23T21:30:26.350Z,1001.48
2019-04-23T21:32:26.554Z,1001.46
2019-04-23T21:33:17.817Z,1001.46
2019-04-23T21:34:21.087Z,1001.46
2019-04-23T21:37:11.123Z,1001.45
2019-04-23T21:38:29.787Z,1001.46
2019-04-23T21:39:18.883Z,1001.55
2019-04-23T21:40:48.432Z,1001.57
2019-04-23T21:41:29.341Z,1001.52
2019-04-23T21:43:25.017Z,1001.57
2019-04-23T21:44:11.914Z,1001.57
2019-04-23T21:45:17.462Z,1001.60
2019-04-23T21:47:09.409Z,1001.60
2019-04-23T21:48:17.045Z,1001.61
2019-04-23T21:49:37.373Z,1001.60
2019-04-23T21:50:25.246Z,1001.63
2019-04-23T21:51:30.897Z,1001.56
2019-04-23T21:52:12.983Z,1001.66
2019-04-23T21:53:16.730Z,1001.57
2019-04-23T21:54:08.008Z,1001.58
2019-04-23T21:55:20.450Z,1001.60
2019-04-23T21:56:15.448Z,1001.62
2019-04-23T21:57:14.553Z,1001.66
2019-04-23T21:58:29.683Z,1001.62
2019-04-23T21:59:07.196Z,1001.63
2019-04-23T22:00:36.741Z,1001.58
2019-04-23T22:01:21.249Z,1001.63
2019-04-23T22:02:22.002Z,1001.61
2019-04-23T22:03:18.146Z,1001.56
2019-04-23T22:04:41.499Z,1001.58
2019-04-23T22:05:19.342Z,1001.61
2019-04-23T22:06:25.412Z,1001.59
2019-04-23T22:07:16.448Z,1001.59
2019-04-23T22:08:19.573Z,1001.70
2019-04-23T22:09:24.433Z,1001.53
2019-04-23T22:11:44.268Z,1001.65
2019-04-23T22:12:15.444Z,1001.62
2019-04-23T22:13:20.617Z,1001.66
2019-04-23T22:15:13.091Z,1001.57
2019-04-23T22:16:14.684Z,1001.59
2019-04-23T22:17:19.793Z,1001.64
2019-04-23T22:18:12.925Z,1001.56
2019-04-23T22:19:15.508Z,1001.57
2019-04-23T22:21:25.914Z,1001.67
2019-04-23T22:22:10.868Z,1001.66
2019-04-23T22:23:22.033Z,1001.66
2019-04-23T22:25:12.833Z,1001.70
2019-04-23T22:26:22.350Z,1001.62
2019-04-23T22:27:09.849Z,1001.66
2019-04-23T22:28:17.214Z,1001.65
2019-04-23T22:29:21.011Z,1001.61
2019-04-23T22:30:18.844Z,1001.57
2019-04-23T22:32:13.035Z,1001.65
2019-04-23T22:33:21.366Z,1001.64
2019-04-23T22:34:19.603Z,1001.63
2019-04-23T22:35:10.722Z,1001.63
2019-04-23T22:36:14.670Z,1001.62
2019-04-23T22:37:16.003Z,1001.62
2019-04-23T22:38:18.845Z,1001.65
2019-04-23T22:39:16.039Z,1001.54
2019-04-23T22:40:10.232Z,1001.61
2019-04-23T22:41:16.409Z,1001.62
2019-04-23T22:42:26.666Z,1001.62
2019-04-23T22:43:38.433Z,1001.62
2019-04-23T22:44:24.589Z,1001.58
2019-04-23T22:46:30.093Z,1001.62
2019-04-23T22:47:08.778Z,1001.62
2019-04-23T22:48:13.714Z,1001.66
2019-04-23T22:49:25.177Z,1001.62
2019-04-23T22:50:28.242Z,1001.63
2019-04-23T22:51:22.877Z,1001.65
2019-04-23T22:52:18.774Z,1001.66
2019-04-23T22:53:31.444Z,1001.65
2019-04-23T22:56:35.070Z,1001.67
2019-04-23T22:57:37.162Z,1001.64
2019-04-23T22:58:11.431Z,1001.60
2019-04-23T22:59:34.247Z,1001.64
2019-04-23T23:01:23.734Z,1001.59
2019-04-23T23:02:21.557Z,1001.57
2019-04-23T23:05:31.778Z,1001.59
2019-04-23T23:07:24.207Z,1001.57
2019-04-23T23:08:30.911Z,1001.60
2019-04-23T23:10:28.366Z,1001.54
2019-04-23T23:11:13.692Z,1001.51
2019-04-23T23:12:23.030Z,1001.51
2019-04-23T23:14:42.663Z,1001.53
2019-04-23T23:15:14.882Z,1001.62
2019-04-23T23:16:14.859Z,1001.55
2019-04-23T23:17:11.497Z,1001.62
2019-04-23T23:19:21.854Z,1001.54
2019-04-23T23:20:33.127Z,1001.65
2019-04-23T23:21:12.070Z,1001.44
2019-04-23T23:22:20.196Z,1001.46
2019-04-23T23:24:15.348Z,1001.56
2019-04-23T23:25:19.088Z,1001.51
2019-04-23T23:26:31.450Z,1001.53
2019-04-23T23:27:30.387Z,1001.54
2019-04-23T23:29:15.402Z,1001.50
2019-04-23T23:31:10.152Z,1001.46
2019-04-23T23:32:23.279Z,1001.53
2019-04-23T23:34:17.099Z,1001.48
2019-04-23T23:35:21.876Z,1001.49
2019-04-23T23:37:28.091Z,1001.52
2019-04-23T23:38:28.898Z,1001.48
2019-04-23T23:46:20.579Z,1001.40
2019-04-23T23:47:15.033Z,1001.46
2019-04-23T23:48:13.054Z,1001.42
2019-04-23T23:49:17.391Z,1001.42
2019-04-23T23:50:35.449Z,1001.46
2019-04-23T23:51:17.092Z,1001.40
2019-04-23T23:52:15.681Z,1001.43
2019-04-23T23:53:24.945Z,1001.44
2019-04-23T23:55:13.739Z,1001.39
2019-04-23T23:58:29.016Z,1001.41
2019-04-23T23:59:23.014Z,1001.43
